Sheridan, Texas
Current Conditions -  °F | °C
As of 6:55 AM on Sunday 21 Dec 2014 (Local Time) from K66R Reporting Station
Overcast Overcast  
Wind Chill: 50°   Ceiling: 1500
Heat Index: 50°   Visibility: 7mi
Dew Point: 49°   Wind: 0mph
Humidity: 96%   Direction: NA
Pressure: 30.13"   Gusts: NA
Location:  29.49°N, 96.67°W
Report Text: K66R 211255Z AUTO 00000KT 7SM SCT007 OVC015 10/10 A3013 RMK AO2 T01010095
Loading
Personal Weather Stations






























Interactive Weather Map New forecast layout! Learn more

10-Day Weather Forecast

Advertisements
Track Severe Weather on mobile